createdAt,value
2022-10-17T00:00:50.046Z,101458.25
2022-10-17T00:03:19.885Z,101456.28
2022-10-17T00:05:48.816Z,101458.38
2022-10-17T00:08:18.237Z,101465.47
2022-10-17T00:10:46.708Z,101462.38
2022-10-17T00:13:14.056Z,101454.94
2022-10-17T00:15:45.018Z,101449.75
2022-10-17T00:18:12.310Z,101449.75
2022-10-17T00:20:39.628Z,101447.25
2022-10-17T00:23:06.921Z,101447.25
2022-10-17T00:25:34.318Z,101448.72
2022-10-17T00:28:01.599Z,101448.72
2022-10-17T00:30:28.983Z,101445.88
2022-10-17T00:32:57.140Z,101440.59
2022-10-17T00:35:24.452Z,101444.34
2022-10-17T00:37:51.790Z,101444.34
2022-10-17T00:40:19.251Z,101439.56
2022-10-17T00:42:47.668Z,101442.03
2022-10-17T00:45:22.404Z,101442.03
2022-10-17T00:47:56.804Z,101427.38
2022-10-17T00:50:25.401Z,101439.06
2022-10-17T00:52:53.546Z,101443.63
2022-10-17T00:55:29.732Z,101440.41
2022-10-17T00:58:00.693Z,101431.69
2022-10-17T01:00:28.122Z,101438.34
2022-10-17T01:02:55.502Z,101430.44
2022-10-17T01:05:23.262Z,101430.44
2022-10-17T01:07:53.299Z,101424.94
2022-10-17T01:13:11.934Z,101423.00
2022-10-17T01:21:35.674Z,101412.00
2022-10-17T01:24:42.803Z,101396.44
2022-10-17T01:27:26.951Z,101396.44
2022-10-17T01:32:49.929Z,101392.31
2022-10-17T01:40:49.534Z,101376.63
2022-10-17T01:43:27.599Z,101380.88
2022-10-17T01:46:03.032Z,101376.31
2022-10-17T01:48:36.422Z,101365.91
2022-10-17T01:51:10.608Z,101369.56
2022-10-17T01:53:46.259Z,101355.16
2022-10-17T01:56:16.024Z,101355.16
2022-10-17T01:58:51.169Z,101354.22
2022-10-17T02:01:21.406Z,101354.22
2022-10-17T02:03:51.539Z,101355.97
2022-10-17T02:06:18.979Z,101350.25
2022-10-17T02:08:48.581Z,101347.50
2022-10-17T02:22:42.269Z,101338.78
2022-10-17T02:28:19.593Z,101333.31
2022-10-17T02:30:53.928Z,101333.31
2022-10-17T02:33:35.439Z,101328.47
2022-10-17T02:36:10.798Z,101336.88
2022-10-17T02:38:40.312Z,101325.97
2022-10-17T02:41:11.750Z,101329.16
2022-10-17T02:43:40.417Z,101318.19
2022-10-17T02:46:08.517Z,101316.22
2022-10-17T02:48:47.573Z,101316.22
2022-10-17T02:54:21.808Z,101310.31
2022-10-17T02:56:57.236Z,101305.59
2022-10-17T02:59:26.906Z,101306.84
2022-10-17T03:01:54.886Z,101300.22
2022-10-17T03:04:22.256Z,101295.53
2022-10-17T03:06:49.989Z,101295.53
2022-10-17T03:09:18.853Z,101297.13
2022-10-17T03:11:46.236Z,101288.19
2022-10-17T03:14:13.611Z,101283.59
2022-10-17T03:16:41.859Z,101286.91
2022-10-17T03:19:09.227Z,101287.34
2022-10-17T03:21:38.384Z,101284.28
2022-10-17T03:24:07.640Z,101284.28
2022-10-17T03:26:35.203Z,101285.09
2022-10-17T03:29:04.071Z,101282.34
2022-10-17T03:31:33.598Z,101281.53
2022-10-17T03:34:03.135Z,101277.97
2022-10-17T03:36:30.497Z,101280.03
2022-10-17T03:38:57.848Z,101280.03
2022-10-17T03:41:25.159Z,101286.69
2022-10-17T03:43:54.547Z,101279.59
2022-10-17T03:46:23.957Z,101279.59
2022-10-17T03:48:51.673Z,101279.59
2022-10-17T03:51:19.125Z,101279.59
2022-10-17T03:53:51.651Z,101272.47
2022-10-17T03:56:21.916Z,101268.59
2022-10-17T03:59:01.993Z,101272.13
2022-10-17T04:01:31.639Z,101268.94
2022-10-17T04:03:59.756Z,101269.28
2022-10-17T04:06:30.873Z,101263.78
2022-10-17T04:09:00.599Z,101263.78
2022-10-17T04:11:35.700Z,101248.78
2022-10-17T04:14:04.022Z,101252.47
2022-10-17T04:16:32.420Z,101252.47
2022-10-17T04:19:04.804Z,101253.84
2022-10-17T04:21:39.541Z,101255.34
2022-10-17T04:24:11.594Z,101249.25
2022-10-17T04:26:53.784Z,101247.41
2022-10-17T04:29:26.045Z,101252.56
2022-10-17T04:31:58.992Z,101245.78
2022-10-17T04:34:33.729Z,101242.91
2022-10-17T04:37:01.195Z,101239.13
2022-10-17T04:39:29.961Z,101238.88
2022-10-17T04:41:58.593Z,101225.19
2022-10-17T04:44:26.132Z,101225.19
2022-10-17T04:46:53.681Z,101230.44
2022-10-17T04:49:23.199Z,101232.41
2022-10-17T04:51:54.054Z,101219.81
2022-10-17T04:54:26.274Z,101219.81
2022-10-17T04:56:59.926Z,101216.81
2022-10-17T04:59:28.951Z,101221.25
2022-10-17T05:02:12.299Z,101213.22
2022-10-17T05:04:40.229Z,101213.84
2022-10-17T05:07:08.922Z,101205.44
2022-10-17T05:09:44.333Z,101208.47
2022-10-17T05:12:12.564Z,101201.34
2022-10-17T05:14:43.599Z,101201.34
2022-10-17T05:17:10.948Z,101192.00
2022-10-17T05:19:39.223Z,101192.88
2022-10-17T05:22:08.087Z,101182.81
2022-10-17T05:24:35.402Z,101182.81
2022-10-17T05:27:03.944Z,101186.19
2022-10-17T05:29:31.367Z,101186.19
2022-10-17T05:32:07.028Z,101177.22
2022-10-17T05:34:35.398Z,101181.13
2022-10-17T05:37:02.872Z,101183.59
2022-10-17T05:39:31.831Z,101178.97
2022-10-17T05:42:00.017Z,101178.69
2022-10-17T05:44:27.785Z,101176.53
2022-10-17T05:46:58.563Z,101169.66
2022-10-17T05:49:45.179Z,101170.75
2022-10-17T05:52:15.001Z,101161.69
2022-10-17T05:55:02.263Z,101160.84
2022-10-17T05:57:30.335Z,101159.09
2022-10-17T05:59:58.445Z,101162.13
2022-10-17T06:02:25.892Z,101154.63
2022-10-17T06:04:53.600Z,101140.38
2022-10-17T06:07:23.495Z,101142.00
2022-10-17T06:09:51.095Z,101143.94
2022-10-17T06:12:18.458Z,101154.63
2022-10-17T06:14:46.829Z,101148.75
2022-10-17T06:17:16.477Z,101152.72
2022-10-17T06:19:45.235Z,101148.81
2022-10-17T06:22:15.156Z,101148.81
2022-10-17T06:24:43.057Z,101146.91
2022-10-17T06:27:12.235Z,101138.28
2022-10-17T06:29:41.542Z,101135.19
2022-10-17T06:32:12.593Z,101139.28
2022-10-17T06:34:43.627Z,101126.88
2022-10-17T06:37:11.514Z,101122.34
2022-10-17T06:39:40.799Z,101126.81
2022-10-17T06:42:20.532Z,101120.97
2022-10-17T06:44:54.841Z,101119.00
2022-10-17T06:47:42.028Z,101098.88
2022-10-17T06:50:25.654Z,101108.41
2022-10-17T06:53:05.984Z,101096.34
2022-10-17T06:55:55.491Z,101093.13
2022-10-17T06:58:42.816Z,101095.09
2022-10-17T07:01:24.140Z,101082.25
2022-10-17T07:03:55.585Z,101082.25
2022-10-17T07:06:25.199Z,101092.50
2022-10-17T07:08:56.053Z,101081.81
2022-10-17T07:11:24.966Z,101081.41
2022-10-17T07:13:53.895Z,101085.41
2022-10-17T07:16:22.567Z,101080.28
2022-10-17T07:18:59.305Z,101080.28
2022-10-17T07:21:26.657Z,101092.63
2022-10-17T07:23:54.106Z,101080.34
2022-10-17T07:26:22.415Z,101067.16
2022-10-17T07:28:53.939Z,101067.16
2022-10-17T07:31:31.434Z,101069.50
2022-10-17T07:34:00.862Z,101062.38
2022-10-17T07:36:29.018Z,101062.38
2022-10-17T07:38:59.233Z,101054.06
2022-10-17T07:41:28.150Z,101052.84
2022-10-17T07:43:56.452Z,101045.34
2022-10-17T07:46:29.969Z,101044.28
2022-10-17T07:48:57.425Z,101040.38
2022-10-17T07:51:25.132Z,101043.34
2022-10-17T07:53:52.562Z,101028.72
2022-10-17T07:56:21.744Z,101028.72
2022-10-17T08:03:31.968Z,101030.25
2022-10-17T08:06:01.754Z,101035.75
2022-10-17T08:08:30.026Z,101033.72
2022-10-17T08:11:03.430Z,101027.78
2022-10-17T08:13:30.930Z,101027.78
2022-10-17T08:16:02.063Z,101035.63
2022-10-17T08:18:29.560Z,101025.59
2022-10-17T08:21:00.526Z,101025.59
2022-10-17T08:23:28.797Z,100998.25
2022-10-17T08:26:00.087Z,100998.25
2022-10-17T08:28:27.610Z,100993.09
2022-10-17T08:31:03.686Z,100998.69
2022-10-17T08:33:31.104Z,100991.56
2022-10-17T08:36:01.119Z,100991.56
2022-10-17T08:38:34.662Z,100988.00
2022-10-17T08:41:07.033Z,100981.06
2022-10-17T08:43:45.674Z,100984.31
2022-10-17T08:46:13.111Z,100984.31
2022-10-17T08:48:46.408Z,100981.25
2022-10-17T08:51:23.009Z,100966.69
2022-10-17T08:54:20.889Z,100989.72
2022-10-17T08:56:55.604Z,100981.03
2022-10-17T08:59:27.791Z,100966.75
2022-10-17T09:20:45.147Z,100969.25
2022-10-17T09:23:19.240Z,100969.25
2022-10-17T09:25:52.885Z,100954.16
2022-10-17T09:33:55.885Z,100941.00
2022-10-17T09:36:29.126Z,100944.50
2022-10-17T09:39:01.033Z,100948.06
2022-10-17T09:41:45.872Z,100938.13
2022-10-17T09:49:40.583Z,100942.78
2022-10-17T09:52:16.468Z,100942.78
2022-10-17T09:55:07.219Z,100943.13
2022-10-17T09:57:57.188Z,100924.16
2022-10-17T10:00:28.681Z,100920.50
2022-10-17T10:03:15.962Z,100935.44
2022-10-17T10:06:01.067Z,100935.44
2022-10-17T10:08:32.027Z,100927.06
2022-10-17T10:11:04.968Z,100928.22
2022-10-17T10:13:34.448Z,100916.28
2022-10-17T10:16:16.796Z,100919.41
2022-10-17T10:18:46.444Z,100914.22
2022-10-17T10:21:20.496Z,100890.09
2022-10-17T10:24:20.736Z,100906.66
2022-10-17T10:26:50.678Z,100909.38
2022-10-17T10:32:22.721Z,100897.88
2022-10-17T10:34:56.320Z,100889.47
2022-10-17T10:37:31.328Z,100891.44
2022-10-17T10:40:03.236Z,100894.56
2022-10-17T10:47:59.411Z,100885.13
2022-10-17T10:50:31.963Z,100889.81
2022-10-17T10:55:51.355Z,100883.50
2022-10-17T10:58:31.605Z,100881.47
2022-10-17T11:01:03.532Z,100893.34
2022-10-17T11:03:42.451Z,100898.03
2022-10-17T11:06:19.600Z,100889.75
2022-10-17T11:08:52.806Z,100889.34
2022-10-17T11:11:39.069Z,100889.34
2022-10-17T11:14:21.932Z,100897.22
2022-10-17T11:16:59.823Z,100886.97
2022-10-17T11:25:14.832Z,100872.50
2022-10-17T11:27:42.226Z,100866.94
2022-10-17T11:30:15.779Z,100855.47
2022-10-17T11:32:48.995Z,100850.75
2022-10-17T11:35:24.101Z,100855.47
2022-10-17T11:38:14.428Z,100841.31
2022-10-17T11:40:45.240Z,100846.09
2022-10-17T11:43:27.833Z,100846.09
2022-10-17T11:46:01.852Z,100835.47
2022-10-17T11:54:29.443Z,100824.44
2022-10-17T12:05:46.478Z,100804.03
2022-10-17T12:08:31.424Z,100807.13
2022-10-17T12:11:10.333Z,100814.22
2022-10-17T12:27:42.516Z,100797.75
2022-10-17T12:35:49.034Z,100798.97
2022-10-17T12:38:22.555Z,100789.84
2022-10-17T12:40:56.083Z,100794.94
2022-10-17T12:46:09.653Z,100794.59
2022-10-17T12:51:36.171Z,100785.94
2022-10-17T12:54:16.631Z,100789.41
2022-10-17T12:56:47.898Z,100776.75
2022-10-17T12:59:22.805Z,100777.97
2022-10-17T13:01:56.613Z,100766.53
2022-10-17T13:04:25.237Z,100771.69
2022-10-17T13:06:55.512Z,100789.47
2022-10-17T13:09:33.783Z,100781.97
2022-10-17T13:12:05.201Z,100783.94
2022-10-17T13:14:34.520Z,100777.22
2022-10-17T13:17:07.978Z,100781.97
2022-10-17T13:19:46.108Z,100774.88
2022-10-17T13:22:19.511Z,100777.66
2022-10-17T13:24:50.238Z,100766.59
2022-10-17T13:27:38.735Z,100774.88
2022-10-17T13:30:31.106Z,100772.50
2022-10-17T13:33:01.178Z,100768.19
2022-10-17T13:38:07.898Z,100768.59
2022-10-17T13:40:50.574Z,100764.63
2022-10-17T13:43:24.654Z,100765.41
2022-10-17T13:45:55.555Z,100760.66
2022-10-17T13:48:27.233Z,100762.66
2022-10-17T13:51:01.782Z,100770.94
2022-10-17T13:56:29.524Z,100766.63
2022-10-17T13:59:01.947Z,100762.25
2022-10-17T14:01:30.671Z,100763.41
2022-10-17T14:04:09.309Z,100757.13
2022-10-17T14:06:47.589Z,100757.13
2022-10-17T14:12:15.378Z,100746.88
2022-10-17T14:15:09.187Z,100740.09
2022-10-17T14:17:38.846Z,100741.69
2022-10-17T14:23:21.311Z,100745.66
2022-10-17T14:25:47.481Z,100751.97
2022-10-17T14:28:18.872Z,100768.56
2022-10-17T14:30:56.816Z,100823.09
2022-10-17T14:33:30.177Z,100833.38
2022-10-17T14:36:00.586Z,100832.19
2022-10-17T14:38:31.092Z,100827.81
2022-10-17T14:43:37.160Z,100831.03
2022-10-17T14:46:05.538Z,100823.50
2022-10-17T14:48:33.685Z,100823.06
2022-10-17T14:51:11.929Z,100829.03
2022-10-17T14:53:40.510Z,100826.25
2022-10-17T14:56:27.071Z,100838.09
2022-10-17T14:58:54.674Z,100846.03
2022-10-17T15:01:22.301Z,100842.88
2022-10-17T15:03:50.943Z,100836.56
2022-10-17T15:06:28.502Z,100840.50
2022-10-17T15:08:58.371Z,100834.16
2022-10-17T15:11:26.168Z,100823.91
2022-10-17T15:13:54.217Z,100833.38
2022-10-17T15:16:25.393Z,100833.38
2022-10-17T15:18:54.048Z,100849.97
2022-10-17T15:21:38.409Z,100846.41
2022-10-17T15:24:07.178Z,100840.09
2022-10-17T15:26:35.324Z,100843.25
2022-10-17T15:29:04.581Z,100843.25
2022-10-17T15:31:33.826Z,100844.81
2022-10-17T15:34:01.476Z,100849.16
2022-10-17T15:36:32.082Z,100852.34
2022-10-17T15:39:02.761Z,100833.34
2022-10-17T15:41:32.525Z,100833.34
2022-10-17T15:44:00.802Z,100840.03
2022-10-17T15:46:32.979Z,100832.53
2022-10-17T15:49:07.834Z,100810.38
2022-10-17T15:51:35.335Z,100806.75
2022-10-17T15:54:03.080Z,100815.00
2022-10-17T15:56:36.568Z,100808.63
2022-10-17T15:59:08.392Z,100806.91
2022-10-17T16:01:36.201Z,100806.91
2022-10-17T16:04:03.913Z,100801.34
2022-10-17T16:06:31.583Z,100808.03
2022-10-17T16:08:59.291Z,100795.72
2022-10-17T16:14:11.727Z,100814.84
2022-10-17T16:16:42.791Z,100813.59
2022-10-17T16:19:11.880Z,100813.56
2022-10-17T16:21:41.227Z,100813.56
2022-10-17T16:24:13.349Z,100803.28
2022-10-17T16:26:42.148Z,100818.19
2022-10-17T16:29:11.971Z,100805.53
2022-10-17T16:31:44.059Z,100805.53
2022-10-17T16:34:14.975Z,100802.25
2022-10-17T16:36:45.350Z,100802.25
2022-10-17T16:39:13.047Z,100802.19
2022-10-17T16:41:40.658Z,100815.56
2022-10-17T16:44:11.605Z,100823.84
2022-10-17T16:46:39.227Z,100829.44
2022-10-17T16:49:07.444Z,100820.47
2022-10-17T16:51:36.151Z,100820.47
2022-10-17T16:54:05.008Z,100822.94
2022-10-17T16:56:33.262Z,100837.22
2022-10-17T16:59:01.938Z,100830.97
2022-10-17T17:01:29.736Z,100824.72
2022-10-17T17:03:57.477Z,100827.91
2022-10-17T17:06:28.651Z,100836.56
2022-10-17T17:08:57.091Z,100825.56
2022-10-17T17:11:26.619Z,100834.69
2022-10-17T17:13:57.675Z,100840.28
2022-10-17T17:16:27.700Z,100840.28
2022-10-17T17:18:59.533Z,100848.66
2022-10-17T17:21:28.266Z,100826.56
2022-10-17T17:23:58.638Z,100832.13
2022-10-17T17:26:28.569Z,100835.72
2022-10-17T17:28:59.161Z,100835.78
2022-10-17T17:31:29.582Z,100827.88
2022-10-17T17:33:58.013Z,100829.91
2022-10-17T17:36:29.767Z,100818.84
2022-10-17T17:38:57.835Z,100824.38
2022-10-17T17:41:26.412Z,100829.50
2022-10-17T17:43:54.446Z,100819.66
2022-10-17T17:46:24.908Z,100822.03
2022-10-17T17:48:54.544Z,100829.97
2022-10-17T17:51:28.502Z,100818.53
2022-10-17T17:53:57.997Z,100820.09
2022-10-17T17:56:28.369Z,100814.19
2022-10-17T17:58:59.041Z,100814.19
2022-10-17T18:01:29.024Z,100820.16
2022-10-17T18:03:59.831Z,100826.06
2022-10-17T18:06:28.370Z,100826.06
2022-10-17T18:08:58.407Z,100823.72
2022-10-17T18:11:27.444Z,100819.78
2022-10-17T18:13:59.051Z,100820.56
2022-10-17T18:16:28.273Z,100824.13
2022-10-17T18:18:57.010Z,100817.44
2022-10-17T18:21:24.724Z,100822.19
2022-10-17T18:23:52.250Z,100817.06
2022-10-17T18:26:20.232Z,100804.84
2022-10-17T18:28:47.859Z,100809.97
2022-10-17T18:31:22.219Z,100817.09
2022-10-17T18:33:55.868Z,100817.91
2022-10-17T18:36:23.708Z,100823.84
2022-10-17T18:38:51.181Z,100823.06
2022-10-17T18:41:21.272Z,100823.88
2022-10-17T18:43:50.126Z,100818.72
2022-10-17T18:46:20.162Z,100814.41
2022-10-17T18:48:48.706Z,100811.28
2022-10-17T18:51:18.769Z,100819.19
2022-10-17T18:53:48.979Z,100818.00
2022-10-17T18:56:17.711Z,100831.84
2022-10-17T18:58:45.176Z,100826.31
2022-10-17T19:01:16.213Z,100831.06
2022-10-17T19:03:44.989Z,100834.59
2022-10-17T19:06:14.385Z,100833.44
2022-10-17T19:08:43.446Z,100835.81
2022-10-17T19:13:50.431Z,100829.53
2022-10-17T19:16:21.063Z,100818.44
2022-10-17T19:18:54.287Z,100825.41
2022-10-17T19:21:22.152Z,100825.41
2022-10-17T19:23:57.529Z,100821.00
2022-10-17T19:26:26.574Z,100818.19
2022-10-17T19:28:54.084Z,100824.09
2022-10-17T19:31:26.794Z,100824.44
2022-10-17T19:33:56.450Z,100823.59
2022-10-17T19:36:32.267Z,100820.41
2022-10-17T19:39:07.627Z,100822.78
2022-10-17T19:41:36.668Z,100817.22
2022-10-17T19:44:04.041Z,100805.72
2022-10-17T19:46:32.514Z,100806.06
2022-10-17T19:49:01.176Z,100811.50
2022-10-17T19:51:29.662Z,100805.13
2022-10-17T19:54:00.534Z,100818.47
2022-10-17T19:56:30.153Z,100813.56
2022-10-17T19:58:58.155Z,100824.59
2022-10-17T20:01:28.012Z,100824.59
2022-10-17T20:03:56.341Z,100817.06
2022-10-17T20:06:24.592Z,100818.22
2022-10-17T20:08:52.542Z,100821.03
2022-10-17T20:11:23.614Z,100822.66
2022-10-17T20:13:51.543Z,100825.84
2022-10-17T20:16:23.937Z,100824.28
2022-10-17T20:18:53.330Z,100827.47
2022-10-17T20:21:24.314Z,100825.50
2022-10-17T20:23:51.864Z,100829.50
2022-10-17T20:26:36.556Z,100822.38
2022-10-17T20:29:09.157Z,100816.44
2022-10-17T20:31:36.859Z,100831.78
2022-10-17T20:34:04.435Z,100831.31
2022-10-17T20:36:32.584Z,100832.84
2022-10-17T20:39:00.055Z,100835.56
2022-10-17T20:41:27.615Z,100837.91
2022-10-17T20:43:55.900Z,100835.47
2022-10-17T20:46:36.394Z,100841.75
2022-10-17T20:49:05.933Z,100836.91
2022-10-17T20:51:33.992Z,100838.53
2022-10-17T20:54:01.445Z,100836.91
2022-10-17T20:56:30.719Z,100847.13
2022-10-17T20:59:01.063Z,100838.81
2022-10-17T21:01:30.260Z,100834.44
2022-10-17T21:04:02.600Z,100836.06
2022-10-17T21:06:43.882Z,100836.06
2022-10-17T21:09:11.206Z,100840.41
2022-10-17T21:11:39.557Z,100836.84
2022-10-17T21:14:08.492Z,100836.84
2022-10-17T21:16:37.025Z,100836.84
2022-10-17T21:19:06.257Z,100830.53
2022-10-17T21:21:36.058Z,100834.09
2022-10-17T21:24:06.167Z,100832.13
2022-10-17T21:26:36.578Z,100831.72
2022-10-17T21:29:06.106Z,100827.81
2022-10-17T21:31:35.623Z,100827.44
2022-10-17T21:34:13.326Z,100826.69
2022-10-17T21:36:40.724Z,100822.00
2022-10-17T21:41:41.060Z,100815.66
2022-10-17T21:44:14.678Z,100817.25
2022-10-17T21:46:43.071Z,100814.13
2022-10-17T21:49:13.148Z,100818.06
2022-10-17T21:51:40.928Z,100816.47
2022-10-17T21:54:08.576Z,100814.09
2022-10-17T21:56:36.671Z,100797.53
2022-10-17T21:59:05.106Z,100808.47
2022-10-17T22:01:35.738Z,100802.97
2022-10-17T22:04:06.131Z,100802.56
2022-10-17T22:06:41.160Z,100800.53
2022-10-17T22:09:12.900Z,100802.16
2022-10-17T22:11:41.124Z,100803.31
2022-10-17T22:14:13.209Z,100804.13
2022-10-17T22:16:41.128Z,100800.97
2022-10-17T22:19:10.859Z,100813.97
2022-10-17T22:21:38.284Z,100811.53
2022-10-17T22:24:08.269Z,100812.28
2022-10-17T22:26:37.717Z,100822.50
2022-10-17T22:29:06.868Z,100811.81
2022-10-17T22:31:34.714Z,100813.78
2022-10-17T22:34:03.553Z,100801.16
2022-10-17T22:36:32.932Z,100807.75
2022-10-17T22:39:00.263Z,100799.91
2022-10-17T22:41:27.633Z,100801.75
2022-10-17T22:43:54.919Z,100800.56
2022-10-17T22:46:22.285Z,100792.31
2022-10-17T22:48:49.760Z,100791.03
2022-10-17T22:51:17.196Z,100796.97
2022-10-17T22:53:44.547Z,100787.81
2022-10-17T22:56:15.402Z,100793.25
2022-10-17T22:58:43.309Z,100795.19
2022-10-17T23:01:15.053Z,100795.91
2022-10-17T23:03:42.474Z,100803.31
2022-10-17T23:06:09.933Z,100803.00
2022-10-17T23:08:38.075Z,100806.25
2022-10-17T23:11:06.227Z,100806.25
2022-10-17T23:13:33.960Z,100792.72
2022-10-17T23:16:01.397Z,100789.53
2022-10-17T23:18:28.748Z,100796.16
2022-10-17T23:20:56.333Z,100785.53
2022-10-17T23:23:23.745Z,100790.25
2022-10-17T23:25:51.936Z,100790.91
2022-10-17T23:28:19.367Z,100776.28
2022-10-17T23:30:46.871Z,100788.44
2022-10-17T23:33:14.623Z,100780.56
2022-10-17T23:35:42.378Z,100773.44
2022-10-17T23:38:10.229Z,100777.34
2022-10-17T23:40:37.729Z,100776.16
2022-10-17T23:43:05.438Z,100783.63
2022-10-17T23:45:34.759Z,100776.16
2022-10-17T23:48:05.722Z,100773.41
2022-10-17T23:50:33.052Z,100769.03
2022-10-17T23:53:00.413Z,100760.34
2022-10-17T23:55:27.730Z,100759.53
2022-10-17T23:57:55.018Z,100758.00
